Time;durP1;ratioP1;P1;durP2;ratioP2;P2;SDS_P1;SDS_P2;PMS_P1;PMS_P2;Temp;Humidity;BMP_temperature;BMP_pressure;BME280_temperature;BME280_humidity;BME280_pressure;Samples;Min_cycle;Max_cycle;Signal;HPM_P1;HPM_P2
2021/06/09 00:01:25;;;;;;;3.25;2.95;;;23.20;51.60;;;;;;5018000;28;20491;-58
2021/06/09 00:03:51;;;;;;;3.10;2.80;;;23.20;51.60;;;;;;5017914;28;20381;-58
2021/06/09 00:06:16;;;;;;;3.05;2.72;;;23.20;51.70;;;;;;5017566;28;20397;-59
2021/06/09 00:08:42;;;;;;;3.00;2.60;;;23.20;51.60;;;;;;5017879;28;20476;-58
2021/06/09 00:11:08;;;;;;;3.17;2.87;;;23.20;51.70;;;;;;5017745;28;20389;-58
2021/06/09 00:13:34;;;;;;;3.10;2.80;;;23.20;51.50;;;;;;5017857;28;20462;-58
2021/06/09 00:16:05;;;;;;;3.22;2.70;;;23.20;51.50;;;;;;5017453;28;20442;-58
2021/06/09 00:18:31;;;;;;;3.10;2.80;;;23.20;51.60;;;;;;5016763;28;20389;-58
2021/06/09 00:20:57;;;;;;;3.15;2.80;;;23.20;51.70;;;;;;5017808;28;20427;-58
2021/06/09 00:23:27;;;;;;;3.20;2.90;;;23.20;51.50;;;;;;5017838;28;20451;-58
2021/06/09 00:25:54;;;;;;;3.20;2.90;;;23.20;51.60;;;;;;5017564;28;20451;-58
2021/06/09 00:28:20;;;;;;;3.70;3.00;;;23.20;51.60;;;;;;5017522;28;20427;-58
2021/06/09 00:30:46;;;;;;;3.10;2.67;;;23.20;51.50;;;;;;5017571;28;20427;-58
2021/06/09 00:33:12;;;;;;;3.40;2.85;;;23.20;51.50;;;;;;5017215;28;20392;-59
2021/06/09 00:35:38;;;;;;;3.38;2.85;;;23.20;51.60;;;;;;5017282;28;20751;-59
2021/06/09 00:38:05;;;;;;;3.50;2.80;;;23.20;51.50;;;;;;5012986;28;20446;-58
2021/06/09 00:40:32;;;;;;;3.20;2.90;;;23.20;51.60;;;;;;5014464;28;20833;-59
2021/06/09 00:43:16;;;;;;;3.15;2.85;;;23.20;51.60;;;;;;5014458;28;20749;-58
2021/06/09 00:46:04;;;;;;;3.10;2.80;;;23.10;51.40;;;;;;5014341;28;20405;-58
2021/06/09 00:48:31;;;;;;;3.03;2.67;;;23.10;51.60;;;;;;5012943;28;20484;-59
2021/06/09 00:51:00;;;;;;;2.92;2.63;;;23.20;51.60;;;;;;5012914;28;20467;-59
2021/06/09 00:53:34;;;;;;;3.10;2.80;;;23.10;51.60;;;;;;5013073;28;20394;-59
2021/06/09 00:56:09;;;;;;;3.00;2.70;;;23.10;51.60;;;;;;5014069;28;20404;-59
2021/06/09 00:58:36;;;;;;;3.97;2.88;;;23.10;51.60;;;;;;5014173;28;20428;-59
2021/06/09 01:01:03;;;;;;;3.40;2.70;;;23.10;51.60;;;;;;5014117;28;20408;-59
2021/06/09 01:03:29;;;;;;;3.03;2.72;;;23.10;51.60;;;;;;5013457;28;20381;-58
2021/06/09 01:05:55;;;;;;;3.00;2.42;;;23.10;51.60;;;;;;5013713;28;20408;-58
2021/06/09 01:08:21;;;;;;;3.07;2.77;;;23.10;51.60;;;;;;5013951;28;20390;-58
2021/06/09 01:10:49;;;;;;;3.42;3.00;;;23.10;51.70;;;;;;5013936;28;20438;-58
2021/06/09 01:13:24;;;;;;;2.90;2.60;;;23.10;51.60;;;;;;5013910;28;20476;-58
2021/06/09 01:15:50;;;;;;;3.20;2.90;;;23.10;51.70;;;;;;5014157;28;20400;-58
2021/06/09 01:18:17;;;;;;;3.03;2.80;;;23.10;51.60;;;;;;5013393;28;20393;-58
2021/06/09 01:20:44;;;;;;;3.72;2.80;;;23.10;51.60;;;;;;5013739;28;20507;-58
2021/06/09 01:23:10;;;;;;;2.92;2.63;;;23.10;51.60;;;;;;5013667;28;20476;-58
2021/06/09 01:25:36;;;;;;;2.90;2.60;;;23.10;51.60;;;;;;5013250;28;20543;-58
2021/06/09 01:28:03;;;;;;;3.15;2.80;;;23.10;51.60;;;;;;5012980;28;20439;-58
2021/06/09 01:30:29;;;;;;;2.85;2.60;;;23.10;51.60;;;;;;5013322;28;20393;-58
2021/06/09 01:32:55;;;;;;;2.70;2.50;;;23.10;51.60;;;;;;5012164;28;20805;-58
2021/06/09 01:35:21;;;;;;;2.72;2.53;;;23.10;51.60;;;;;;5013586;28;20411;-58
2021/06/09 01:37:48;;;;;;;3.00;2.70;;;23.00;51.40;;;;;;5013311;28;20435;-58
2021/06/09 01:40:20;;;;;;;2.97;2.70;;;23.00;51.60;;;;;;5012683;28;20412;-58
2021/06/09 01:42:46;;;;;;;3.30;2.95;;;23.00;51.40;;;;;;5012005;28;20400;-58
2021/06/09 01:45:15;;;;;;;2.88;2.58;;;23.00;51.50;;;;;;4995784;28;20417;-58
2021/06/09 01:47:41;;;;;;;3.00;2.70;;;23.00;51.50;;;;;;5012942;28;20775;-58
2021/06/09 01:50:10;;;;;;;2.90;2.67;;;23.00;51.60;;;;;;5012909;28;20400;-58
2021/06/09 01:52:36;;;;;;;3.08;2.78;;;23.00;51.60;;;;;;5013153;28;20869;-58
2021/06/09 01:55:03;;;;;;;3.33;2.70;;;23.00;52.10;;;;;;5013112;28;20404;-58
2021/06/09 01:57:29;;;;;;;3.00;2.70;;;23.00;51.70;;;;;;5013024;28;20396;-58
2021/06/09 01:59:55;;;;;;;2.83;2.60;;;23.00;51.50;;;;;;5012774;28;20416;-58
2021/06/09 02:02:21;;;;;;;2.80;2.60;;;23.00;51.60;;;;;;5012627;28;20424;-58
2021/06/09 02:04:47;;;;;;;2.73;2.50;;;23.00;51.60;;;;;;5012900;28;20408;-58
2021/06/09 02:07:13;;;;;;;3.25;2.95;;;23.00;51.60;;;;;;5012967;28;20401;-58
2021/06/09 02:09:39;;;;;;;2.70;2.50;;;23.00;51.60;;;;;;5012939;28;20393;-58
2021/06/09 02:12:08;;;;;;;2.70;2.38;;;23.00;51.60;;;;;;5012655;28;20477;-58
2021/06/09 02:14:35;;;;;;;3.28;2.97;;;23.00;51.50;;;;;;5012434;28;20407;-58
2021/06/09 02:17:03;;;;;;;2.80;2.50;;;23.00;51.60;;;;;;5012661;28;20396;-58
2021/06/09 02:19:30;;;;;;;2.90;2.60;;;23.00;51.60;;;;;;5012574;28;20458;-58
2021/06/09 02:21:56;;;;;;;3.00;2.60;;;23.00;51.50;;;;;;5012676;28;20385;-58
2021/06/09 02:24:22;;;;;;;3.30;3.00;;;23.00;51.50;;;;;;5012212;28;20480;-59
2021/06/09 02:26:49;;;;;;;3.05;2.75;;;23.00;51.60;;;;;;5012526;28;20420;-59
2021/06/09 02:29:15;;;;;;;2.75;2.53;;;23.00;51.60;;;;;;5012512;28;20399;-59
2021/06/09 02:31:47;;;;;;;2.75;2.55;;;23.00;51.40;;;;;;5012490;28;20420;-60
2021/06/09 02:34:21;;;;;;;3.00;2.75;;;22.90;51.50;;;;;;5012077;28;20389;-58
2021/06/09 02:36:51;;;;;;;2.85;2.65;;;23.00;51.70;;;;;;5012446;28;20385;-58
2021/06/09 02:39:19;;;;;;;3.00;2.70;;;22.90;51.40;;;;;;5012204;28;20889;-58
2021/06/09 02:41:45;;;;;;;2.90;2.67;;;22.90;51.60;;;;;;5012333;28;20404;-58
2021/06/09 02:44:11;;;;;;;2.60;2.40;;;22.90;51.40;;;;;;5011853;28;20893;-58
2021/06/09 02:46:43;;;;;;;3.00;2.70;;;22.90;51.50;;;;;;5012093;28;20480;-58
2021/06/09 02:49:12;;;;;;;3.00;2.70;;;22.90;51.50;;;;;;5012264;28;20496;-59
2021/06/09 02:51:46;;;;;;;2.90;2.60;;;22.90;51.50;;;;;;5012269;28;20443;-58
2021/06/09 02:54:39;;;;;;;2.88;2.58;;;22.90;51.60;;;;;;5012031;28;20473;-58
2021/06/09 02:57:05;;;;;;;2.90;2.70;;;22.90;51.40;;;;;;5012089;28;20396;-58
2021/06/09 02:59:56;;;;;;;3.10;2.80;;;22.90;51.50;;;;;;5011511;28;20425;-58
2021/06/09 03:02:45;;;;;;;2.70;2.50;;;22.90;51.50;;;;;;5010424;28;20492;-58
2021/06/09 03:05:21;;;;;;;3.10;2.80;;;22.90;51.60;;;;;;5012055;28;20403;-58
2021/06/09 03:07:59;;;;;;;2.95;2.72;;;22.90;51.60;;;;;;5012216;28;20435;-58
2021/06/09 03:10:53;;;;;;;3.08;2.80;;;22.90;51.60;;;;;;5010944;28;20956;-58
2021/06/09 03:13:50;;;;;;;2.67;2.47;;;22.90;51.50;;;;;;5010629;28;20432;-58
2021/06/09 03:16:21;;;;;;;3.10;2.80;;;22.90;51.40;;;;;;5011590;28;20389;-58
2021/06/09 03:18:50;;;;;;;2.95;2.65;;;22.90;51.60;;;;;;5011756;28;20838;-58
2021/06/09 03:21:32;;;;;;;3.17;2.88;;;22.90;51.50;;;;;;5011930;28;20491;-58
2021/06/09 03:24:15;;;;;;;3.10;2.80;;;22.90;51.60;;;;;;5011684;28;20784;-58
2021/06/09 03:27:07;;;;;;;2.90;2.70;;;22.80;51.40;;;;;;5011801;28;20488;-58
2021/06/09 03:29:33;;;;;;;3.20;2.50;;;22.80;51.50;;;;;;5011804;28;20397;-58
2021/06/09 03:32:02;;;;;;;2.70;2.50;;;22.80;51.50;;;;;;5010978;28;20903;-58
2021/06/09 03:34:35;;;;;;;3.30;3.00;;;22.80;51.40;;;;;;5011239;28;20438;-58
2021/06/09 03:37:03;;;;;;;2.92;2.70;;;22.80;51.50;;;;;;5011517;28;20916;-58
2021/06/09 03:39:30;;;;;;;2.83;2.63;;;22.90;51.40;;;;;;5011590;28;20409;-58
2021/06/09 03:41:58;;;;;;;2.88;2.67;;;22.80;51.50;;;;;;5011548;28;20493;-58
2021/06/09 03:44:45;;;;;;;2.80;2.60;;;22.80;51.30;;;;;;5011006;28;20504;-58
2021/06/09 03:47:12;;;;;;;2.97;2.60;;;22.80;51.40;;;;;;5011460;28;20396;-58
2021/06/09 03:49:39;;;;;;;2.70;2.50;;;22.90;51.50;;;;;;5011669;28;20734;-58
2021/06/09 03:52:07;;;;;;;2.80;2.50;;;22.80;51.50;;;;;;5011247;28;20869;-58
2021/06/09 03:54:34;;;;;;;2.83;2.63;;;22.80;51.40;;;;;;5011364;28;20375;-58
2021/06/09 03:57:01;;;;;;;2.97;2.60;;;22.80;51.40;;;;;;5011520;28;20484;-58
2021/06/09 03:59:28;;;;;;;3.05;2.75;;;22.80;51.50;;;;;;5011469;28;20443;-59
2021/06/09 04:01:57;;;;;;;2.60;2.40;;;22.80;51.40;;;;;;5011229;28;20388;-58
2021/06/09 04:04:24;;;;;;;2.97;2.67;;;22.80;51.40;;;;;;5010997;28;20924;-58
2021/06/09 04:06:53;;;;;;;3.37;2.43;;;22.80;51.40;;;;;;5011044;28;20750;-58
2021/06/09 04:09:21;;;;;;;2.72;2.53;;;22.80;51.50;;;;;;5011370;28;20385;-59
2021/06/09 04:11:51;;;;;;;3.00;2.60;;;22.80;51.50;;;;;;5011810;28;20400;-59
2021/06/09 04:14:20;;;;;;;3.28;2.72;;;22.80;51.40;;;;;;5014798;28;20392;-59
2021/06/09 04:16:47;;;;;;;3.03;2.60;;;22.80;51.40;;;;;;5014983;28;20400;-59
2021/06/09 04:19:14;;;;;;;3.10;2.67;;;22.80;52.00;;;;;;5014945;28;20455;-59
2021/06/09 04:21:40;;;;;;;2.53;2.33;;;22.80;51.50;;;;;;5015014;28;20461;-58
2021/06/09 04:24:06;;;;;;;2.60;2.40;;;22.80;51.40;;;;;;5014657;28;20408;-58
2021/06/09 04:26:34;;;;;;;3.80;2.63;;;22.80;51.20;;;;;;5013182;28;20396;-58
2021/06/09 04:29:02;;;;;;;3.17;2.58;;;22.80;51.40;;;;;;5014655;28;20416;-58
2021/06/09 04:31:28;;;;;;;4.65;2.55;;;22.70;51.20;;;;;;5015714;28;20452;-58
2021/06/09 04:33:56;;;;;;;3.30;2.80;;;22.80;51.40;;;;;;5015160;28;20393;-59
2021/06/09 04:36:22;;;;;;;4.28;2.58;;;22.80;51.40;;;;;;5014519;28;20877;-59
2021/06/09 04:38:48;;;;;;;4.63;3.10;;;22.80;51.50;;;;;;5014768;28;20435;-59
2021/06/09 04:41:14;;;;;;;5.30;2.97;;;22.80;53.00;;;;;;5013658;28;20448;-59
2021/06/09 04:43:40;;;;;;;3.33;2.85;;;22.80;52.20;;;;;;5014541;28;20443;-59
2021/06/09 04:46:06;;;;;;;4.00;2.78;;;22.90;52.60;;;;;;5014434;28;20393;-59
2021/06/09 04:48:32;;;;;;;5.25;3.03;;;22.90;52.60;;;;;;5014253;28;20381;-59
2021/06/09 04:50:58;;;;;;;3.30;2.90;;;22.90;53.30;;;;;;5014601;28;20404;-59
2021/06/09 04:53:24;;;;;;;4.93;2.90;;;22.90;53.10;;;;;;5014127;28;20392;-58
2021/06/09 04:55:53;;;;;;;5.00;3.05;;;22.90;52.80;;;;;;5013852;28;20397;-58
2021/06/09 04:58:20;;;;;;;3.90;2.83;;;22.90;53.10;;;;;;5013917;28;20399;-59
2021/06/09 05:00:47;;;;;;;3.40;2.95;;;23.00;52.80;;;;;;5013911;28;20967;-59
2021/06/09 05:03:14;;;;;;;3.53;2.80;;;23.00;53.00;;;;;;5014148;28;20393;-59
2021/06/09 05:05:40;;;;;;;4.85;2.60;;;23.00;53.10;;;;;;5029010;28;20437;-59
2021/06/09 05:08:06;;;;;;;6.45;2.95;;;23.00;53.10;;;;;;5013860;28;20388;-59
2021/06/09 05:10:34;;;;;;;4.82;3.17;;;23.00;53.10;;;;;;5013569;28;20389;-59
2021/06/09 05:13:13;;;;;;;6.38;3.35;;;23.00;53.00;;;;;;5012842;28;20407;-58
2021/06/09 05:15:46;;;;;;;5.65;3.00;;;23.00;53.20;;;;;;5013666;28;20389;-58
2021/06/09 05:18:25;;;;;;;3.92;3.10;;;23.00;53.10;;;;;;5013587;28;20912;-58
2021/06/09 05:20:53;;;;;;;5.03;3.30;;;23.00;53.10;;;;;;5013387;28;20429;-59
2021/06/09 05:23:27;;;;;;;4.75;3.10;;;23.00;53.10;;;;;;5011787;28;20512;-59
2021/06/09 05:25:54;;;;;;;4.07;2.92;;;23.00;53.00;;;;;;5013310;28;20393;-59
2021/06/09 05:28:23;;;;;;;4.70;3.03;;;23.00;53.00;;;;;;5013681;28;20400;-59
2021/06/09 05:30:52;;;;;;;4.97;3.30;;;23.00;52.60;;;;;;5013397;28;20865;-60
2021/06/09 05:33:20;;;;;;;4.78;3.20;;;23.00;52.70;;;;;;5013436;28;20793;-58
2021/06/09 05:35:46;;;;;;;4.47;3.00;;;23.00;52.50;;;;;;5012095;28;20393;-60
2021/06/09 05:38:13;;;;;;;5.10;3.08;;;23.10;54.00;;;;;;5011885;28;20467;-58
2021/06/09 05:40:39;;;;;;;5.00;3.00;;;23.20;53.90;;;;;;5012702;28;20890;-58
2021/06/09 05:43:05;;;;;;;7.35;3.20;;;23.20;53.40;;;;;;5013352;28;20484;-58
2021/06/09 05:45:33;;;;;;;4.47;3.00;;;23.30;53.50;;;;;;5013138;28;20532;-59
2021/06/09 05:48:00;;;;;;;3.33;3.03;;;23.20;53.00;;;;;;5013147;28;20403;-59
2021/06/09 05:50:30;;;;;;;6.13;2.75;;;23.20;52.90;;;;;;5012544;28;20530;-59
2021/06/09 05:52:58;;;;;;;4.82;2.80;;;23.20;52.40;;;;;;5012940;28;20446;-59
2021/06/09 05:55:27;;;;;;;4.25;2.95;;;23.10;52.00;;;;;;5013094;28;20404;-60
2021/06/09 05:57:54;;;;;;;4.97;2.90;;;23.10;51.80;;;;;;5012968;28;20821;-59
2021/06/09 06:00:23;;;;;;;4.82;2.90;;;23.10;52.40;;;;;;5011301;28;20512;-59
2021/06/09 06:02:50;;;;;;;3.78;2.67;;;23.20;52.50;;;;;;5013057;28;20434;-59
2021/06/09 06:05:17;;;;;;;3.78;3.03;;;23.20;52.50;;;;;;5013000;28;20404;-59
2021/06/09 06:07:43;;;;;;;4.70;2.90;;;23.20;52.40;;;;;;5013258;28;20381;-59
2021/06/09 06:10:10;;;;;;;4.03;2.85;;;23.20;52.40;;;;;;5012963;28;20396;-59
2021/06/09 06:12:36;;;;;;;5.10;3.00;;;23.20;52.30;;;;;;5012387;28;20399;-59
2021/06/09 06:15:04;;;;;;;3.58;2.80;;;23.20;52.30;;;;;;5012734;28;20479;-58
2021/06/09 06:17:30;;;;;;;3.30;3.00;;;23.20;52.20;;;;;;5012796;28;20392;-59
2021/06/09 06:19:56;;;;;;;3.70;2.83;;;23.20;52.20;;;;;;5012600;28;20428;-59
2021/06/09 06:22:22;;;;;;;3.97;2.80;;;23.30;52.30;;;;;;5011122;28;20812;-59
2021/06/09 06:24:50;;;;;;;4.18;2.90;;;23.30;52.30;;;;;;5012407;28;20487;-58
2021/06/09 06:27:17;;;;;;;4.68;2.80;;;23.30;52.20;;;;;;5011238;28;20428;-58
2021/06/09 06:29:44;;;;;;;3.10;2.78;;;23.30;52.20;;;;;;5012479;28;20396;-58
2021/06/09 06:32:13;;;;;;;4.65;2.90;;;23.30;52.20;;;;;;5012471;28;20396;-59
2021/06/09 06:34:48;;;;;;;3.58;3.10;;;23.30;51.90;;;;;;5011326;28;20389;-59
2021/06/09 06:37:14;;;;;;;3.28;2.97;;;23.30;51.60;;;;;;5012535;28;20401;-59
2021/06/09 06:39:43;;;;;;;3.90;2.80;;;23.30;51.50;;;;;;5012135;28;20412;-58
2021/06/09 06:42:10;;;;;;;3.53;2.70;;;23.40;51.40;;;;;;5012105;28;20389;-58
2021/06/09 06:44:39;;;;;;;3.80;3.00;;;23.40;51.20;;;;;;5011622;28;20412;-59
2021/06/09 06:47:04;;;;;;;3.28;2.90;;;23.40;51.00;;;;;;5012259;28;20392;-58
2021/06/09 06:49:31;;;;;;;3.38;2.92;;;23.40;51.00;;;;;;5012303;28;20528;-59
2021/06/09 06:51:57;;;;;;;4.50;3.10;;;23.40;50.80;;;;;;5012129;28;20954;-58
2021/06/09 06:54:24;;;;;;;3.85;3.00;;;23.40;51.00;;;;;;5011996;28;20529;-59
2021/06/09 06:56:51;;;;;;;3.35;2.88;;;23.40;51.10;;;;;;5011405;28;20399;-59
2021/06/09 06:59:17;;;;;;;4.13;3.15;;;23.40;51.10;;;;;;5012022;28;20458;-58
2021/06/09 07:01:43;;;;;;;3.13;2.75;;;23.50;51.30;;;;;;5011989;28;20409;-58
2021/06/09 07:04:14;;;;;;;3.30;2.90;;;23.40;51.20;;;;;;5012039;28;20385;-59
2021/06/09 07:06:43;;;;;;;6.25;3.10;;;23.50;50.90;;;;;;5011617;28;20401;-59
2021/06/09 07:09:09;;;;;;;4.68;3.30;;;23.40;50.90;;;;;;5011948;28;20385;-58
2021/06/09 07:11:41;;;;;;;6.07;3.53;;;23.50;51.20;;;;;;5011906;28;20393;-59
2021/06/09 07:14:08;;;;;;;5.55;3.30;;;23.40;51.10;;;;;;5011822;28;20472;-59
2021/06/09 07:16:35;;;;;;;7.97;3.60;;;23.40;51.10;;;;;;5011270;28;20401;-59
2021/06/09 07:19:03;;;;;;;5.30;3.60;;;23.40;51.00;;;;;;5011526;28;20417;-59
2021/06/09 07:21:29;;;;;;;5.25;3.40;;;23.40;50.90;;;;;;5010775;28;20403;-58
2021/06/09 07:23:55;;;;;;;4.35;3.30;;;23.40;51.10;;;;;;5011724;28;20471;-58
2021/06/09 07:26:22;;;;;;;5.97;3.60;;;23.50;51.10;;;;;;5011445;28;20403;-59
2021/06/09 07:28:51;;;;;;;4.75;3.15;;;23.40;51.10;;;;;;5008448;28;20396;-58
2021/06/09 07:31:24;;;;;;;3.80;3.05;;;23.50;50.70;;;;;;5006745;28;20399;-59
2021/06/09 07:33:50;;;;;;;5.10;3.10;;;23.50;50.50;;;;;;4997393;28;20392;-58
2021/06/09 07:36:22;;;;;;;3.78;3.25;;;23.50;50.80;;;;;;5010926;28;20405;-59
2021/06/09 07:38:55;;;;;;;4.38;3.17;;;23.50;50.80;;;;;;5010282;28;20396;-58
2021/06/09 07:41:25;;;;;;;5.55;3.15;;;23.50;50.70;;;;;;5011451;28;20397;-59
2021/06/09 07:43:53;;;;;;;4.55;3.03;;;23.50;50.40;;;;;;5011096;28;20413;-59
2021/06/09 07:46:26;;;;;;;5.18;3.13;;;23.50;50.60;;;;;;5012481;28;20407;-59
2021/06/09 07:48:54;;;;;;;4.38;3.25;;;23.50;50.40;;;;;;5015251;28;20384;-59
2021/06/09 07:51:20;;;;;;;4.10;3.30;;;23.60;50.30;;;;;;5015414;28;20487;-58
2021/06/09 07:53:48;;;;;;;4.22;3.35;;;23.60;50.30;;;;;;5015298;28;20532;-59
2021/06/09 07:56:16;;;;;;;5.40;3.05;;;23.60;50.30;;;;;;5015298;28;20396;-59
2021/06/09 07:58:43;;;;;;;5.43;3.80;;;23.60;50.20;;;;;;5014338;28;20384;-59
2021/06/09 08:01:09;;;;;;;6.60;3.58;;;23.70;51.60;;;;;;5014748;28;20444;-59
2021/06/09 08:03:36;;;;;;;5.55;3.60;;;23.70;51.80;;;;;;5014934;28;20391;-59
2021/06/09 08:06:03;;;;;;;4.78;3.47;;;23.70;51.00;;;;;;5009979;28;20496;-59
2021/06/09 08:08:30;;;;;;;5.50;3.20;;;23.70;50.40;;;;;;5014808;28;20443;-59
2021/06/09 08:10:57;;;;;;;5.88;3.45;;;23.80;50.40;;;;;;5013500;28;20765;-62
2021/06/09 08:13:23;;;;;;;5.53;3.42;;;23.80;50.30;;;;;;5014700;28;20443;-62
2021/06/09 08:15:49;;;;;;;6.18;3.38;;;23.70;50.30;;;;;;5014933;28;20392;-65
2021/06/09 08:18:15;;;;;;;5.25;3.67;;;23.80;50.30;;;;;;5007843;28;20407;-61
2021/06/09 08:21:05;;;;;;;5.37;3.30;;;23.80;50.20;;;;;;5012044;28;20416;-60
2021/06/09 08:23:31;;;;;;;4.47;3.33;;;23.80;50.10;;;;;;5010980;28;20459;-62
2021/06/09 08:25:57;;;;;;;5.33;3.30;;;23.80;50.10;;;;;;5014378;28;20486;-62
2021/06/09 08:28:23;;;;;;;5.05;3.40;;;23.80;50.00;;;;;;5014395;28;20749;-63
2021/06/09 08:30:49;;;;;;;4.70;3.20;;;23.90;50.00;;;;;;5014008;28;20385;-61
2021/06/09 08:33:16;;;;;;;4.78;3.00;;;23.90;49.90;;;;;;5014733;28;20471;-61
2021/06/09 08:35:41;;;;;;;4.20;3.38;;;23.90;49.90;;;;;;5014531;28;20400;-62
2021/06/09 08:38:07;;;;;;;4.28;3.55;;;23.90;49.80;;;;;;5029445;28;20393;-59
2021/06/09 08:40:33;;;;;;;4.43;3.58;;;23.90;50.30;;;;;;5013680;28;20467;-63
2021/06/09 08:43:00;;;;;;;3.75;3.25;;;24.00;49.80;;;;;;5014113;28;20467;-64
2021/06/09 08:45:29;;;;;;;4.93;3.47;;;24.00;49.70;;;;;;5014234;28;20531;-60
2021/06/09 08:47:56;;;;;;;4.78;3.60;;;24.00;49.70;;;;;;5013066;28;20393;-63
2021/06/09 08:50:25;;;;;;;3.95;3.40;;;24.10;49.70;;;;;;5014100;28;20397;-59
2021/06/09 08:52:51;;;;;;;5.82;3.58;;;24.10;49.70;;;;;;5013984;28;20861;-62
2021/06/09 08:55:19;;;;;;;5.57;3.42;;;24.10;49.50;;;;;;5014340;28;20405;-61
2021/06/09 08:57:45;;;;;;;7.18;3.90;;;24.10;49.50;;;;;;5010020;28;20392;-59
2021/06/09 09:00:13;;;;;;;5.80;3.63;;;24.20;49.30;;;;;;5012601;28;20444;-64
2021/06/09 09:02:39;;;;;;;9.60;4.30;;;24.20;49.30;;;;;;5013369;28;20416;-65
2021/06/09 09:05:10;;;;;;;7.45;4.10;;;24.20;49.30;;;;;;5014002;28;20954;-60
2021/06/09 09:07:36;;;;;;;9.00;4.13;;;24.20;49.10;;;;;;5013944;28;20834;-60
2021/06/09 09:10:04;;;;;;;8.52;4.15;;;24.20;49.10;;;;;;5013908;28;20454;-60
2021/06/09 09:12:30;;;;;;;8.50;3.90;;;24.30;49.00;;;;;;5013130;28;20404;-60
2021/06/09 09:14:58;;;;;;;8.02;3.97;;;24.30;49.00;;;;;;5013154;28;20400;-60
2021/06/09 09:17:24;;;;;;;6.47;4.20;;;24.30;49.00;;;;;;5013914;28;20381;-60
2021/06/09 09:19:51;;;;;;;7.33;3.77;;;24.30;49.00;;;;;;5028693;28;20824;-60
2021/06/09 09:22:33;;;;;;;6.40;4.22;;;24.40;48.90;;;;;;5013662;28;20760;-60
2021/06/09 09:24:58;;;;;;;6.65;3.70;;;24.40;48.80;;;;;;5013117;28;20397;-60
2021/06/09 09:27:28;;;;;;;7.20;3.72;;;24.40;48.80;;;;;;5012445;28;20431;-60
2021/06/09 09:30:10;;;;;;;6.75;3.72;;;24.50;48.80;;;;;;5013474;28;20893;-60
2021/06/09 09:32:54;;;;;;;6.30;3.75;;;24.50;48.70;;;;;;5013129;28;20450;-60
2021/06/09 09:35:27;;;;;;;7.10;3.63;;;24.50;48.60;;;;;;5013488;28;20476;-61
2021/06/09 09:38:10;;;;;;;5.25;3.50;;;24.50;48.50;;;;;;5013376;28;20396;-60
2021/06/09 09:40:36;;;;;;;8.25;3.95;;;24.60;48.40;;;;;;5013018;28;20837;-60
2021/06/09 09:43:02;;;;;;;10.52;4.15;;;24.60;48.40;;;;;;5011901;28;20393;-61
2021/06/09 09:45:30;;;;;;;8.32;4.00;;;24.60;48.70;;;;;;5028287;28;20940;-60
2021/06/09 09:48:10;;;;;;;10.52;4.20;;;24.70;48.70;;;;;;5013228;28;20417;-60
2021/06/09 09:50:40;;;;;;;10.45;3.97;;;24.70;48.70;;;;;;5012980;28;20393;-60
2021/06/09 09:53:22;;;;;;;10.57;3.90;;;24.70;48.50;;;;;;5013107;28;20391;-60
2021/06/09 09:55:59;;;;;;;7.90;4.00;;;24.70;48.40;;;;;;5013176;28;20400;-60
2021/06/09 09:58:27;;;;;;;7.93;3.95;;;24.70;48.60;;;;;;5012942;28;20385;-60
2021/06/09 10:01:07;;;;;;;11.55;3.80;;;24.70;48.40;;;;;;5012577;28;20421;-60
2021/06/09 10:03:36;;;;;;;6.60;3.50;;;24.70;48.30;;;;;;5012889;28;20466;-61
2021/06/09 10:06:21;;;;;;;7.97;4.00;;;24.80;48.40;;;;;;5012925;28;20478;-60
2021/06/09 10:08:47;;;;;;;5.55;3.83;;;24.80;48.40;;;;;;5012275;28;20471;-60
2021/06/09 10:11:16;;;;;;;13.48;4.18;;;24.90;48.40;;;;;;5012864;28;20381;-60
2021/06/09 10:13:42;;;;;;;7.22;3.90;;;25.00;48.40;;;;;;5012760;28;20397;-60
2021/06/09 10:16:41;;;;;;;6.50;4.38;;;25.00;48.30;;;;;;5012680;28;20770;-60
2021/06/09 10:19:12;;;;;;;6.13;3.88;;;25.10;48.30;;;;;;5000689;28;20955;-60
2021/06/09 10:21:50;;;;;;;6.53;3.97;;;25.10;48.10;;;;;;5012688;28;20901;-60
2021/06/09 10:24:16;;;;;;;6.40;4.05;;;25.20;48.00;;;;;;5012664;28;20884;-61
2021/06/09 10:26:51;;;;;;;8.07;4.28;;;25.20;47.80;;;;;;5011903;28;20425;-61
2021/06/09 10:29:20;;;;;;;8.20;4.30;;;25.20;47.80;;;;;;5012163;28;20617;-61
2021/06/09 10:31:51;;;;;;;8.07;4.03;;;25.30;47.70;;;;;;5012367;28;20421;-63
2021/06/09 10:34:17;;;;;;;9.20;4.60;;;25.30;47.50;;;;;;5012319;28;20392;-60
2021/06/09 10:36:50;;;;;;;7.78;4.95;;;25.30;47.70;;;;;;5011814;28;20389;-61
2021/06/09 10:39:17;;;;;;;11.23;5.15;;;25.10;48.30;;;;;;5012162;28;20400;-61
2021/06/09 10:41:50;;;;;;;8.93;5.25;;;25.10;49.50;;;;;;5011906;28;20397;-61
2021/06/09 10:44:18;;;;;;;8.90;5.90;;;25.10;49.60;;;;;;5012008;28;20444;-61
2021/06/09 10:46:46;;;;;;;11.20;6.05;;;25.10;50.10;;;;;;5011696;28;20406;-61
2021/06/09 10:49:20;;;;;;;11.75;5.95;;;25.10;50.20;;;;;;5012186;28;20389;-60
2021/06/09 10:51:49;;;;;;;11.45;5.47;;;25.10;50.40;;;;;;5012075;28;20388;-61
2021/06/09 10:54:15;;;;;;;11.88;6.00;;;25.10;49.90;;;;;;5012187;28;20448;-61
2021/06/09 10:56:44;;;;;;;12.35;5.75;;;25.10;50.10;;;;;;5011646;28;20885;-61
2021/06/09 10:59:18;;;;;;;15.80;6.40;;;25.10;50.30;;;;;;5011973;28;20782;-60
2021/06/09 11:01:45;;;;;;;13.40;6.20;;;25.10;50.70;;;;;;5011898;28;20400;-60
2021/06/09 11:04:12;;;;;;;12.48;6.72;;;25.20;50.50;;;;;;5012189;28;20424;-61
2021/06/09 11:06:38;;;;;;;12.65;6.65;;;25.10;50.30;;;;;;5011674;28;20393;-61
2021/06/09 11:09:29;;;;;;;11.07;6.90;;;25.10;50.10;;;;;;5011730;28;20404;-65
2021/06/09 11:12:12;;;;;;;12.73;6.77;;;25.40;50.10;;;;;;5011877;28;20885;-65
2021/06/09 11:14:56;;;;;;;10.10;6.55;;;25.70;49.40;;;;;;5011912;28;20377;-64
2021/06/09 11:17:44;;;;;;;12.93;6.15;;;25.80;49.10;;;;;;5011962;28;20392;-65
2021/06/09 11:20:14;;;;;;;14.70;6.30;;;25.80;49.10;;;;;;5026719;28;20412;-61
2021/06/09 11:22:44;;;;;;;8.35;5.80;;;25.70;49.30;;;;;;5011214;28;20397;-61
2021/06/09 11:25:11;;;;;;;9.55;5.85;;;25.60;49.40;;;;;;5011805;28;20826;-61
2021/06/09 11:27:48;;;;;;;9.95;5.60;;;25.50;49.40;;;;;;5011723;28;20393;-66
2021/06/09 11:30:23;;;;;;;9.98;5.43;;;25.40;49.50;;;;;;5011844;28;20400;-60
2021/06/09 11:32:50;;;;;;;8.48;5.57;;;25.30;49.80;;;;;;5010802;28;20757;-60
2021/06/09 11:35:16;;;;;;;8.80;4.93;;;25.30;49.90;;;;;;5011530;28;20470;-60
2021/06/09 11:37:42;;;;;;;8.60;5.10;;;25.20;50.00;;;;;;5011425;28;20392;-59
2021/06/09 11:40:08;;;;;;;7.60;4.93;;;25.20;50.00;;;;;;5011323;28;20512;-60
2021/06/09 11:42:35;;;;;;;7.53;4.80;;;25.20;50.40;;;;;;5011311;28;20393;-60
2021/06/09 11:45:33;;;;;;;8.95;5.00;;;25.20;50.80;;;;;;5010978;28;20416;-60
2021/06/09 11:48:19;;;;;;;11.15;4.85;;;25.10;50.30;;;;;;5011146;28;20487;-60
2021/06/09 11:50:45;;;;;;;10.43;4.63;;;25.00;50.30;;;;;;5010928;28;20416;-60
2021/06/09 11:53:19;;;;;;;7.57;4.63;;;25.00;50.20;;;;;;5011327;28;20474;-59
2021/06/09 11:56:23;;;;;;;6.38;4.53;;;25.00;50.10;;;;;;5006363;28;20447;-60
2021/06/09 11:58:59;;;;;;;6.50;4.50;;;24.90;49.90;;;;;;5010658;28;20428;-59
2021/06/09 12:01:33;;;;;;;9.35;4.50;;;24.90;49.90;;;;;;5010109;28;20416;-59
2021/06/09 12:04:22;;;;;;;5.28;4.43;;;24.90;49.80;;;;;;5011025;28;20930;-60
2021/06/09 12:06:54;;;;;;;5.38;4.38;;;24.90;49.70;;;;;;5010231;28;20404;-60
2021/06/09 12:09:21;;;;;;;7.57;4.32;;;24.80;49.60;;;;;;5011240;28;20400;-60
2021/06/09 12:11:50;;;;;;;5.17;3.80;;;24.80;49.60;;;;;;5011179;28;20484;-60
2021/06/09 12:14:17;;;;;;;6.82;4.05;;;25.30;50.20;;;;;;5011359;28;20393;-61
2021/06/09 12:16:42;;;;;;;6.03;3.97;;;25.80;48.80;;;;;;5011016;28;20476;-60
2021/06/09 12:19:24;;;;;;;8.43;3.95;;;25.80;48.50;;;;;;5010991;28;20473;-61
2021/06/09 12:21:54;;;;;;;7.15;4.13;;;25.60;48.50;;;;;;5011096;28;20436;-61
2021/06/09 12:24:20;;;;;;;6.72;4.40;;;25.40;48.90;;;;;;5011174;28;20397;-60
2021/06/09 12:26:54;;;;;;;6.03;4.23;;;25.30;49.10;;;;;;5010726;28;20726;-60
2021/06/09 12:29:28;;;;;;;6.53;4.40;;;25.20;49.30;;;;;;5011097;28;20427;-60
2021/06/09 12:31:55;;;;;;;6.20;4.25;;;25.10;50.10;;;;;;5011547;28;20404;-60
2021/06/09 12:34:32;;;;;;;6.55;4.50;;;25.10;49.70;;;;;;5014692;28;20438;-60
2021/06/09 12:37:06;;;;;;;5.50;4.50;;;25.10;49.70;;;;;;5012741;28;20777;-60
2021/06/09 12:39:33;;;;;;;5.68;4.38;;;25.10;49.90;;;;;;5014549;28;20499;-60
2021/06/09 12:41:59;;;;;;;5.15;4.30;;;25.10;50.00;;;;;;5014025;28;20381;-60
2021/06/09 12:44:27;;;;;;;4.87;4.00;;;25.10;50.10;;;;;;5014002;28;20499;-60
2021/06/09 12:47:01;;;;;;;5.53;4.18;;;25.10;50.50;;;;;;5013889;28;20431;-60
2021/06/09 12:49:31;;;;;;;4.60;4.10;;;25.10;50.90;;;;;;5013087;28;20535;-60
2021/06/09 12:52:11;;;;;;;6.68;4.07;;;25.10;51.10;;;;;;5014302;28;20393;-61
2021/06/09 12:54:53;;;;;;;5.63;4.10;;;25.10;51.30;;;;;;5014060;28;20472;-60
2021/06/09 12:57:33;;;;;;;5.13;3.88;;;25.10;51.50;;;;;;5014278;28;20400;-60
2021/06/09 12:59:59;;;;;;;5.13;4.00;;;25.20;51.70;;;;;;5014027;28;20452;-60